This is the latest recevied weather packets stored in our database for station/object OE3MNS-13. If no packets are shown the sender has not sent any weather packets the latest 10 day(s).
| Time | Temp. | Humidity | Pressure | Rain* | Wind** | Luminosity | Snow |
|---|---|---|---|---|---|---|---|
| 1777922718 | 22.22° C | 36% | 1009.8 hPa | 0 mm | - | 0 W/m² | - |
| 1777922121 | 22.22° C | 36% | 1009.7 hPa | 0 mm | - | 0 W/m² | - |
| 1777920321 | 22.78° C | 34% | 1009.7 hPa | 0 mm | - | 0 W/m² | - |
| 1777919762 | 22.78° C | 33% | 1009.7 hPa | 0 mm | - | 0 W/m² | - |
| 1777914919 | 24.44° C | 29% | 1009.6 hPa | 0 mm | - | 52 W/m² | - |
| 1777905918 | 27.22° C | 25% | 1010.8 hPa | 0 mm | - | 418 W/m² | - |
| 1777904124 | 26.67° C | 24% | 1011.2 hPa | 0 mm | - | 517 W/m² | - |
| 1777902919 | 27.22° C | 26% | 1011.5 hPa | 0 mm | - | 494 W/m² | - |
| 1777902318 | 27.22° C | 26% | 1011.5 hPa | 0 mm | - | 564 W/m² | - |
| 1777898739 | 26.11° C | 31% | 1012.6 hPa | 0 mm | - | 589 W/m² | - |
| 1777897520 | 26.11° C | 32% | 1012.6 hPa | 0 mm | - | 348 W/m² | - |
| 1777896319 | 26.11° C | 31% | 1012.7 hPa | 0 mm | - | 595 W/m² | - |
| 1777893324 | 25.56° C | 34% | 1013.5 hPa | 0 mm | - | 636 W/m² | - |
| 1777890940 | 24.44° C | 37% | 1014.1 hPa | 0 mm | - | 691 W/m² | - |
| 1777884638 | 23.33° C | 41% | 1014.7 hPa | 0 mm | - | 495 W/m² | - |
| 1777882222 | 22.78° C | 41% | 1014.6 hPa | 0 mm | - | 599 W/m² | - |
| 1777879819 | 21.11° C | 44% | 1014.4 hPa | 0 mm | - | 488 W/m² | - |
| 1777866642 | 12.22° C | 64% | 1013.2 hPa | 0 mm | - | 9 W/m² | - |
| 1777864242 | 12.78° C | 60% | 1013.2 hPa | 0 mm | - | 0 W/m² | - |
| 1777861844 | 13.33° C | 58% | 1013.2 hPa | 0 mm | - | 0 W/m² | - |
| 1777861219 | 13.89° C | 57% | 1013.2 hPa | 0 mm | - | 0 W/m² | - |
| 1777860665 | 13.89° C | 55% | 1013.2 hPa | 0 mm | - | 0 W/m² | - |
| 1777859424 | 15.56° C | 50% | 1013.1 hPa | 0 mm | - | 0 W/m² | - |
| 1777858823 | 16.67° C | 47% | 1013 hPa | 0 mm | - | 0 W/m² | - |
| 1777855225 | 16.67° C | 46% | 1012.7 hPa | 0 mm | - | 0 W/m² | - |
* Rain latest hour (hover to see other rain measurements)
** Current wind speed in m/s (hover to see current wind gust speed)